sensor_id;sensor_type;location;lat;lon;timestamp;pressure;altitude;pressure_sealevel;temperature;humidity
56600;BME280;51832;48.152;11.530;2023-05-09T00:03:42;95818.00;;;17.51;48.02
56600;BME280;51832;48.152;11.530;2023-05-09T00:08:43;95822.25;;;17.47;48.19
56600;BME280;51832;48.152;11.530;2023-05-09T00:13:43;95820.28;;;17.37;48.74
56600;BME280;51832;48.152;11.530;2023-05-09T00:18:44;95801.41;;;17.34;48.86
56600;BME280;51832;48.152;11.530;2023-05-09T00:23:45;95808.09;;;17.41;48.78
56600;BME280;51832;48.152;11.530;2023-05-09T00:28:46;95808.06;;;17.36;48.28
56600;BME280;51832;48.152;11.530;2023-05-09T00:33:47;95808.22;;;17.25;48.41
56600;BME280;51832;48.152;11.530;2023-05-09T00:38:47;95797.34;;;17.26;48.23
56600;BME280;51832;48.152;11.530;2023-05-09T00:43:48;95802.38;;;17.23;48.15
56600;BME280;51832;48.152;11.530;2023-05-09T00:48:48;95805.72;;;16.81;49.88
56600;BME280;51832;48.152;11.530;2023-05-09T00:53:49;95791.75;;;16.91;48.98
56600;BME280;51832;48.152;11.530;2023-05-09T00:58:49;95786.19;;;16.92;49.28
56600;BME280;51832;48.152;11.530;2023-05-09T01:03:50;95785.59;;;16.85;49.72
56600;BME280;51832;48.152;11.530;2023-05-09T01:14:04;95776.19;;;16.51;50.97
56600;BME280;51832;48.152;11.530;2023-05-09T01:19:22;95768.09;;;16.62;50.17
56600;BME280;51832;48.152;11.530;2023-05-09T01:24:43;95767.72;;;16.54;50.48
56600;BME280;51832;48.152;11.530;2023-05-09T01:29:56;95763.88;;;16.40;50.71
56600;BME280;51832;48.152;11.530;2023-05-09T01:34:59;95759.34;;;16.40;50.26
56600;BME280;51832;48.152;11.530;2023-05-09T01:40:07;95774.94;;;16.58;49.80
56600;BME280;51832;48.152;11.530;2023-05-09T01:45:10;95766.78;;;16.38;50.55
56600;BME280;51832;48.152;11.530;2023-05-09T01:50:14;95763.81;;;16.34;50.28
56600;BME280;51832;48.152;11.530;2023-05-09T01:55:16;95761.72;;;16.37;50.51
56600;BME280;51832;48.152;11.530;2023-05-09T02:00:20;95756.97;;;16.39;50.50
56600;BME280;51832;48.152;11.530;2023-05-09T02:05:24;95744.06;;;16.25;50.79
56600;BME280;51832;48.152;11.530;2023-05-09T02:10:28;95734.78;;;16.28;50.64
56600;BME280;51832;48.152;11.530;2023-05-09T02:15:29;95738.78;;;16.52;50.33
56600;BME280;51832;48.152;11.530;2023-05-09T02:20:30;95736.53;;;16.39;50.58
56600;BME280;51832;48.152;11.530;2023-05-09T02:25:33;95740.47;;;16.37;50.37
56600;BME280;51832;48.152;11.530;2023-05-09T02:30:37;95731.00;;;16.19;51.25
56600;BME280;51832;48.152;11.530;2023-05-09T02:35:41;95727.28;;;16.20;51.37
56600;BME280;51832;48.152;11.530;2023-05-09T02:40:42;95727.84;;;16.00;52.21
56600;BME280;51832;48.152;11.530;2023-05-09T02:45:43;95723.06;;;15.75;52.73
56600;BME280;51832;48.152;11.530;2023-05-09T02:50:43;95719.53;;;15.91;52.19
56600;BME280;51832;48.152;11.530;2023-05-09T02:55:45;95712.66;;;15.69;53.29
56600;BME280;51832;48.152;11.530;2023-05-09T03:00:45;95711.34;;;15.71;53.37
56600;BME280;51832;48.152;11.530;2023-05-09T03:05:45;95712.94;;;15.72;52.95
56600;BME280;51832;48.152;11.530;2023-05-09T03:10:46;95710.41;;;15.60;53.80
56600;BME280;51832;48.152;11.530;2023-05-09T03:15:47;95716.69;;;15.76;53.10
56600;BME280;51832;48.152;11.530;2023-05-09T03:20:47;95711.78;;;15.85;52.88
56600;BME280;51832;48.152;11.530;2023-05-09T03:25:47;95705.84;;;15.56;54.17
56600;BME280;51832;48.152;11.530;2023-05-09T03:30:49;95705.09;;;15.60;53.86
56600;BME280;51832;48.152;11.530;2023-05-09T03:35:49;95705.66;;;15.62;54.17
56600;BME280;51832;48.152;11.530;2023-05-09T03:40:50;95709.13;;;15.63;54.01
56600;BME280;51832;48.152;11.530;2023-05-09T03:45:50;95703.41;;;15.54;54.34
56600;BME280;51832;48.152;11.530;2023-05-09T03:50:50;95708.97;;;15.53;54.42
56600;BME280;51832;48.152;11.530;2023-05-09T03:55:51;95699.66;;;15.50;54.78
56600;BME280;51832;48.152;11.530;2023-05-09T04:00:51;95702.16;;;15.57;54.30
56600;BME280;51832;48.152;11.530;2023-05-09T04:05:53;95703.47;;;15.38;55.07
56600;BME280;51832;48.152;11.530;2023-05-09T04:10:53;95709.22;;;15.51;54.50
56600;BME280;51832;48.152;11.530;2023-05-09T04:15:54;95710.16;;;15.62;54.43
56600;BME280;51832;48.152;11.530;2023-05-09T04:20:54;95706.34;;;15.75;54.66
56600;BME280;51832;48.152;11.530;2023-05-09T04:25:55;95715.03;;;15.92;53.32
56600;BME280;51832;48.152;11.530;2023-05-09T04:30:56;95714.19;;;16.13;52.74
56600;BME280;51832;48.152;11.530;2023-05-09T04:35:56;95715.78;;;16.36;52.01
56600;BME280;51832;48.152;11.530;2023-05-09T04:40:57;95710.56;;;16.19;52.04
56600;BME280;51832;48.152;11.530;2023-05-09T04:45:57;95700.47;;;16.48;50.88
56600;BME280;51832;48.152;11.530;2023-05-09T04:50:58;95697.22;;;16.41;51.31
56600;BME280;51832;48.152;11.530;2023-05-09T04:55:58;95694.03;;;16.71;50.12
56600;BME280;51832;48.152;11.530;2023-05-09T05:00:59;95698.84;;;16.74;49.37
56600;BME280;51832;48.152;11.530;2023-05-09T05:05:59;95697.19;;;17.00;49.34
56600;BME280;51832;48.152;11.530;2023-05-09T05:10:59;95686.50;;;16.90;49.50
56600;BME280;51832;48.152;11.530;2023-05-09T05:16:00;95686.03;;;17.03;49.16
56600;BME280;51832;48.152;11.530;2023-05-09T05:21:00;95688.66;;;17.40;47.16
56600;BME280;51832;48.152;11.530;2023-05-09T05:26:02;95686.38;;;17.64;47.34
56600;BME280;51832;48.152;11.530;2023-05-09T05:31:02;95680.00;;;17.65;47.29
56600;BME280;51832;48.152;11.530;2023-05-09T05:36:03;95678.47;;;17.79;46.51
56600;BME280;51832;48.152;11.530;2023-05-09T05:41:04;95680.91;;;17.96;46.00
56600;BME280;51832;48.152;11.530;2023-05-09T05:46:04;95688.97;;;18.21;45.35
56600;BME280;51832;48.152;11.530;2023-05-09T05:51:05;95677.75;;;18.09;46.03
56600;BME280;51832;48.152;11.530;2023-05-09T05:56:05;95678.34;;;18.26;45.71
56600;BME280;51832;48.152;11.530;2023-05-09T06:01:06;95669.56;;;18.41;46.02
56600;BME280;51832;48.152;11.530;2023-05-09T06:06:06;95660.25;;;18.89;43.98
56600;BME280;51832;48.152;11.530;2023-05-09T06:11:07;95653.16;;;17.71;46.91
56600;BME280;51832;48.152;11.530;2023-05-09T06:16:07;95645.81;;;18.19;45.63
56600;BME280;51832;48.152;11.530;2023-05-09T06:21:08;95648.53;;;18.44;45.61
56600;BME280;51832;48.152;11.530;2023-05-09T06:26:08;95650.66;;;18.58;45.81
56600;BME280;51832;48.152;11.530;2023-05-09T06:31:09;95651.97;;;19.06;44.98
56600;BME280;51832;48.152;11.530;2023-05-09T06:36:09;95642.06;;;19.16;44.46
56600;BME280;51832;48.152;11.530;2023-05-09T06:41:10;95648.00;;;18.68;46.11
56600;BME280;51832;48.152;11.530;2023-05-09T06:46:11;95646.63;;;19.11;45.79
56600;BME280;51832;48.152;11.530;2023-05-09T06:51:11;95630.94;;;18.74;46.61
56600;BME280;51832;48.152;11.530;2023-05-09T06:56:12;95624.16;;;19.32;45.64
56600;BME280;51832;48.152;11.530;2023-05-09T07:01:13;95631.16;;;19.82;44.81
56600;BME280;51832;48.152;11.530;2023-05-09T07:06:13;95633.56;;;19.84;44.71
56600;BME280;51832;48.152;11.530;2023-05-09T07:11:13;95626.94;;;19.76;44.77
56600;BME280;51832;48.152;11.530;2023-05-09T07:16:14;95621.47;;;19.97;44.24
56600;BME280;51832;48.152;11.530;2023-05-09T07:21:15;95617.97;;;20.06;44.19
56600;BME280;51832;48.152;11.530;2023-05-09T07:26:15;95611.66;;;19.87;45.09
56600;BME280;51832;48.152;11.530;2023-05-09T07:31:16;95607.03;;;19.98;45.02
56600;BME280;51832;48.152;11.530;2023-05-09T07:36:16;95596.41;;;20.32;44.16
56600;BME280;51832;48.152;11.530;2023-05-09T07:41:17;95604.78;;;20.54;43.95
56600;BME280;51832;48.152;11.530;2023-05-09T07:46:17;95595.38;;;19.83;45.49
56600;BME280;51832;48.152;11.530;2023-05-09T07:51:18;95591.97;;;20.17;45.37
56600;BME280;51832;48.152;11.530;2023-05-09T07:56:18;95595.00;;;20.00;45.90
56600;BME280;51832;48.152;11.530;2023-05-09T08:01:19;95578.13;;;18.91;49.13
56600;BME280;51832;48.152;11.530;2023-05-09T08:06:19;95576.38;;;19.31;48.78
56600;BME280;51832;48.152;11.530;2023-05-09T08:11:20;95564.03;;;20.67;45.29
56600;BME280;51832;48.152;11.530;2023-05-09T08:16:20;95565.75;;;20.82;46.20
56600;BME280;51832;48.152;11.530;2023-05-09T08:21:21;95558.44;;;20.35;48.00
56600;BME280;51832;48.152;11.530;2023-05-09T08:26:21;95548.66;;;20.54;47.61
56600;BME280;51832;48.152;11.530;2023-05-09T08:31:22;95553.41;;;20.62;46.65
56600;BME280;51832;48.152;11.530;2023-05-09T08:36:23;95540.38;;;20.79;46.52
56600;BME280;51832;48.152;11.530;2023-05-09T08:41:25;95533.22;;;21.22;45.39
56600;BME280;51832;48.152;11.530;2023-05-09T08:46:37;95525.47;;;21.21;45.14
56600;BME280;51832;48.152;11.530;2023-05-09T08:51:38;95526.19;;;21.50;45.26
56600;BME280;51832;48.152;11.530;2023-05-09T08:56:40;95527.75;;;21.33;45.91
56600;BME280;51832;48.152;11.530;2023-05-09T09:01:41;95507.53;;;21.45;45.76
56600;BME280;51832;48.152;11.530;2023-05-09T09:06:41;95494.34;;;21.49;45.24
56600;BME280;51832;48.152;11.530;2023-05-09T09:11:43;95501.28;;;22.06;44.42
56600;BME280;51832;48.152;11.530;2023-05-09T09:16:46;95490.72;;;22.28;43.60
56600;BME280;51832;48.152;11.530;2023-05-09T09:21:49;95490.06;;;22.04;43.79
56600;BME280;51832;48.152;11.530;2023-05-09T09:26:54;95479.09;;;22.19;42.41
56600;BME280;51832;48.152;11.530;2023-05-09T09:31:57;95476.38;;;22.52;42.93
56600;BME280;51832;48.152;11.530;2023-05-09T09:37:00;95469.13;;;22.39;43.90
56600;BME280;51832;48.152;11.530;2023-05-09T09:42:10;95455.53;;;22.49;43.63
56600;BME280;51832;48.152;11.530;2023-05-09T09:47:11;95447.25;;;22.45;43.66
56600;BME280;51832;48.152;11.530;2023-05-09T09:52:21;95439.97;;;22.78;42.70
56600;BME280;51832;48.152;11.530;2023-05-09T09:57:35;95424.22;;;22.72;43.10
56600;BME280;51832;48.152;11.530;2023-05-09T10:02:58;95415.66;;;22.28;44.05
56600;BME280;51832;48.152;11.530;2023-05-09T10:08:01;95424.25;;;22.99;41.90
56600;BME280;51832;48.152;11.530;2023-05-09T10:13:09;95410.94;;;22.66;43.11
56600;BME280;51832;48.152;11.530;2023-05-09T10:18:11;95398.88;;;22.09;44.88
56600;BME280;51832;48.152;11.530;2023-05-09T10:23:14;95393.34;;;22.47;44.28
56600;BME280;51832;48.152;11.530;2023-05-09T10:28:17;95387.59;;;22.26;44.56
56600;BME280;51832;48.152;11.530;2023-05-09T10:33:25;95374.50;;;21.92;45.68
56600;BME280;51832;48.152;11.530;2023-05-09T10:38:29;95371.97;;;22.42;45.07
56600;BME280;51832;48.152;11.530;2023-05-09T10:43:32;95363.84;;;22.88;44.07
56600;BME280;51832;48.152;11.530;2023-05-09T10:48:33;95354.66;;;23.02;43.54
56600;BME280;51832;48.152;11.530;2023-05-09T10:53:47;95350.91;;;23.26;43.01
56600;BME280;51832;48.152;11.530;2023-05-09T10:58:48;95340.22;;;22.76;45.20
56600;BME280;51832;48.152;11.530;2023-05-09T11:03:56;95338.09;;;23.90;42.01
56600;BME280;51832;48.152;11.530;2023-05-09T11:08:56;95313.81;;;23.50;42.72
56600;BME280;51832;48.152;11.530;2023-05-09T11:13:57;95311.50;;;24.19;41.82
56600;BME280;51832;48.152;11.530;2023-05-09T11:18:57;95298.84;;;24.68;40.63
56600;BME280;51832;48.152;11.530;2023-05-09T11:23:58;95289.38;;;23.83;42.26
56600;BME280;51832;48.152;11.530;2023-05-09T11:28:58;95277.91;;;24.39;40.98
56600;BME280;51832;48.152;11.530;2023-05-09T11:34:00;95278.47;;;25.01;39.12
56600;BME280;51832;48.152;11.530;2023-05-09T11:39:08;95269.63;;;25.09;39.37
56600;BME280;51832;48.152;11.530;2023-05-09T11:44:16;95259.50;;;24.98;39.44
56600;BME280;51832;48.152;11.530;2023-05-09T11:49:17;95260.19;;;24.47;40.48
56600;BME280;51832;48.152;11.530;2023-05-09T11:54:18;95256.16;;;25.09;39.31
56600;BME280;51832;48.152;11.530;2023-05-09T11:59:19;95246.78;;;24.07;41.33
56600;BME280;51832;48.152;11.530;2023-05-09T12:04:19;95236.91;;;25.45;38.97
56600;BME280;51832;48.152;11.530;2023-05-09T12:09:20;95233.31;;;25.15;39.45
56600;BME280;51832;48.152;11.530;2023-05-09T12:19:27;95213.34;;;26.18;36.87
56600;BME280;51832;48.152;11.530;2023-05-09T12:24:28;95205.41;;;25.93;36.99
56600;BME280;51832;48.152;11.530;2023-05-09T12:29:30;95200.22;;;26.38;36.53
56600;BME280;51832;48.152;11.530;2023-05-09T12:34:30;95188.75;;;26.20;36.66
56600;BME280;51832;48.152;11.530;2023-05-09T12:39:31;95176.75;;;25.79;37.45
56600;BME280;51832;48.152;11.530;2023-05-09T12:44:31;95166.28;;;26.99;35.96
56600;BME280;51832;48.152;11.530;2023-05-09T12:49:35;95165.31;;;26.12;36.81
56600;BME280;51832;48.152;11.530;2023-05-09T12:54:36;95153.06;;;25.56;37.89
56600;BME280;51832;48.152;11.530;2023-05-09T12:59:36;95150.03;;;26.45;36.11
56600;BME280;51832;48.152;11.530;2023-05-09T13:04:40;95134.97;;;26.44;36.91
56600;BME280;51832;48.152;11.530;2023-05-09T13:09:54;95138.25;;;26.29;36.61
56600;BME280;51832;48.152;11.530;2023-05-09T13:14:56;95124.28;;;25.77;37.50
56600;BME280;51832;48.152;11.530;2023-05-09T13:19:56;95120.53;;;26.19;37.16
56600;BME280;51832;48.152;11.530;2023-05-09T13:24:57;95110.88;;;26.39;36.69
56600;BME280;51832;48.152;11.530;2023-05-09T13:29:57;95103.13;;;25.58;37.57
56600;BME280;51832;48.152;11.530;2023-05-09T13:34:57;95106.50;;;26.35;36.10
56600;BME280;51832;48.152;11.530;2023-05-09T13:39:58;95090.66;;;26.99;34.96
56600;BME280;51832;48.152;11.530;2023-05-09T13:44:58;95075.94;;;27.09;34.27
56600;BME280;51832;48.152;11.530;2023-05-09T13:49:59;95075.81;;;26.18;35.97
56600;BME280;51832;48.152;11.530;2023-05-09T13:54:59;95064.31;;;26.30;36.01
56600;BME280;51832;48.152;11.530;2023-05-09T13:59:59;95062.09;;;27.10;33.79
56600;BME280;51832;48.152;11.530;2023-05-09T14:05:00;95065.88;;;28.31;31.74
56600;BME280;51832;48.152;11.530;2023-05-09T14:10:02;95037.03;;;27.46;33.07
56600;BME280;51832;48.152;11.530;2023-05-09T14:15:07;95047.91;;;27.99;32.65
56600;BME280;51832;48.152;11.530;2023-05-09T14:20:07;95038.94;;;28.78;31.00
56600;BME280;51832;48.152;11.530;2023-05-09T14:25:08;95042.41;;;29.22;29.93
56600;BME280;51832;48.152;11.530;2023-05-09T14:30:09;95026.88;;;27.55;32.81
56600;BME280;51832;48.152;11.530;2023-05-09T14:35:10;95030.81;;;28.78;31.01
56600;BME280;51832;48.152;11.530;2023-05-09T14:40:10;95021.91;;;28.78;30.15
56600;BME280;51832;48.152;11.530;2023-05-09T14:45:11;95009.00;;;27.14;32.51
56600;BME280;51832;48.152;11.530;2023-05-09T14:50:11;94992.41;;;27.77;31.81
56600;BME280;51832;48.152;11.530;2023-05-09T14:55:14;94992.91;;;27.18;32.48
56600;BME280;51832;48.152;11.530;2023-05-09T15:00:15;94976.75;;;26.61;32.84
56600;BME280;51832;48.152;11.530;2023-05-09T15:05:16;94980.63;;;27.69;31.13
56600;BME280;51832;48.152;11.530;2023-05-09T15:10:17;94979.44;;;28.66;29.73
56600;BME280;51832;48.152;11.530;2023-05-09T15:15:19;94961.91;;;29.23;29.04
56600;BME280;51832;48.152;11.530;2023-05-09T15:20:20;94965.72;;;27.75;30.26
56600;BME280;51832;48.152;11.530;2023-05-09T15:25:20;94966.19;;;28.33;29.89
56600;BME280;51832;48.152;11.530;2023-05-09T15:30:22;94960.47;;;27.42;31.06
56600;BME280;51832;48.152;11.530;2023-05-09T15:35:22;94956.88;;;27.26;31.47
56600;BME280;51832;48.152;11.530;2023-05-09T15:40:23;94951.22;;;26.82;32.04
56600;BME280;51832;48.152;11.530;2023-05-09T15:45:23;94944.50;;;26.76;31.96
56600;BME280;51832;48.152;11.530;2023-05-09T15:50:24;94945.97;;;27.10;31.71
56600;BME280;51832;48.152;11.530;2023-05-09T15:55:24;94933.81;;;26.23;32.77
56600;BME280;51832;48.152;11.530;2023-05-09T16:00:27;94921.97;;;25.61;34.31
56600;BME280;51832;48.152;11.530;2023-05-09T16:05:28;94923.66;;;25.45;34.48
56600;BME280;51832;48.152;11.530;2023-05-09T16:10:29;94917.78;;;24.93;35.87
56600;BME280;51832;48.152;11.530;2023-05-09T16:15:29;94907.13;;;25.55;34.92
56600;BME280;51832;48.152;11.530;2023-05-09T16:20:30;94902.63;;;24.59;36.89
56600;BME280;51832;48.152;11.530;2023-05-09T16:25:30;94908.38;;;24.40;37.41
56600;BME280;51832;48.152;11.530;2023-05-09T16:30:30;94893.69;;;24.67;36.98
56600;BME280;51832;48.152;11.530;2023-05-09T16:35:31;94891.97;;;24.24;37.64
56600;BME280;51832;48.152;11.530;2023-05-09T16:40:31;94875.94;;;24.45;37.25
56600;BME280;51832;48.152;11.530;2023-05-09T16:45:32;94877.91;;;24.10;38.34
56600;BME280;51832;48.152;11.530;2023-05-09T16:50:32;94861.97;;;24.52;37.69
56600;BME280;51832;48.152;11.530;2023-05-09T16:55:33;94856.03;;;24.67;37.54
56600;BME280;51832;48.152;11.530;2023-05-09T17:00:33;94857.16;;;24.66;37.34
56600;BME280;51832;48.152;11.530;2023-05-09T17:05:34;94848.25;;;23.81;38.84
56600;BME280;51832;48.152;11.530;2023-05-09T17:10:34;94847.84;;;23.35;40.06
56600;BME280;51832;48.152;11.530;2023-05-09T17:15:35;94845.16;;;23.61;39.58
56600;BME280;51832;48.152;11.530;2023-05-09T17:20:36;94844.97;;;23.40;40.32
56600;BME280;51832;48.152;11.530;2023-05-09T17:25:36;94842.31;;;23.58;40.25
56600;BME280;51832;48.152;11.530;2023-05-09T17:30:37;94843.06;;;23.76;40.41
56600;BME280;51832;48.152;11.530;2023-05-09T17:35:38;94829.56;;;24.01;40.07
56600;BME280;51832;48.152;11.530;2023-05-09T17:40:39;94818.03;;;23.92;40.67
56600;BME280;51832;48.152;11.530;2023-05-09T17:45:39;94812.59;;;24.09;40.45
56600;BME280;51832;48.152;11.530;2023-05-09T17:50:40;94824.19;;;23.93;40.84
56600;BME280;51832;48.152;11.530;2023-05-09T17:55:43;94808.50;;;23.48;42.02
56600;BME280;51832;48.152;11.530;2023-05-09T18:00:43;94802.66;;;23.55;41.91
56600;BME280;51832;48.152;11.530;2023-05-09T18:05:43;94797.31;;;23.20;42.67
56600;BME280;51832;48.152;11.530;2023-05-09T18:10:44;94790.84;;;23.04;42.79
56600;BME280;51832;48.152;11.530;2023-05-09T18:15:45;94784.19;;;23.10;42.85
56600;BME280;51832;48.152;11.530;2023-05-09T18:20:46;94784.66;;;22.86;42.46
56600;BME280;51832;48.152;11.530;2023-05-09T18:25:46;94782.16;;;23.07;42.14
56600;BME280;51832;48.152;11.530;2023-05-09T18:30:47;94781.53;;;23.01;41.56
56600;BME280;51832;48.152;11.530;2023-05-09T18:35:48;94769.53;;;22.90;41.65
56600;BME280;51832;48.152;11.530;2023-05-09T18:40:48;94771.91;;;22.92;41.33
56600;BME280;51832;48.152;11.530;2023-05-09T18:45:51;94768.13;;;22.93;40.98
56600;BME280;51832;48.152;11.530;2023-05-09T18:50:52;94765.53;;;22.70;41.38
56600;BME280;51832;48.152;11.530;2023-05-09T18:55:53;94777.72;;;22.85;40.75
56600;BME280;51832;48.152;11.530;2023-05-09T19:00:55;94785.28;;;22.83;41.23
56600;BME280;51832;48.152;11.530;2023-05-09T19:05:57;94778.00;;;22.66;41.84
56600;BME280;51832;48.152;11.530;2023-05-09T19:10:57;94771.69;;;22.62;42.18
56600;BME280;51832;48.152;11.530;2023-05-09T19:15:58;94774.69;;;22.52;42.18
56600;BME280;51832;48.152;11.530;2023-05-09T19:20:58;94777.59;;;22.25;42.63
56600;BME280;51832;48.152;11.530;2023-05-09T19:25:59;94774.94;;;22.33;42.26
56600;BME280;51832;48.152;11.530;2023-05-09T19:30:59;94785.66;;;22.33;42.33
56600;BME280;51832;48.152;11.530;2023-05-09T19:36:00;94779.19;;;22.26;42.30
56600;BME280;51832;48.152;11.530;2023-05-09T19:41:00;94787.00;;;22.05;42.58
56600;BME280;51832;48.152;11.530;2023-05-09T19:46:01;94782.59;;;22.09;42.03
56600;BME280;51832;48.152;11.530;2023-05-09T19:51:01;94774.88;;;22.16;41.93
56600;BME280;51832;48.152;11.530;2023-05-09T19:56:02;94788.94;;;21.91;42.13
56600;BME280;51832;48.152;11.530;2023-05-09T20:01:02;94787.78;;;22.06;42.05
56600;BME280;51832;48.152;11.530;2023-05-09T20:06:06;94793.63;;;22.08;41.95
56600;BME280;51832;48.152;11.530;2023-05-09T20:11:06;94788.44;;;22.11;41.76
56600;BME280;51832;48.152;11.530;2023-05-09T20:16:07;94790.72;;;21.95;42.19
56600;BME280;51832;48.152;11.530;2023-05-09T20:21:07;94791.19;;;21.97;42.31
56600;BME280;51832;48.152;11.530;2023-05-09T20:26:09;94795.59;;;21.93;42.42
56600;BME280;51832;48.152;11.530;2023-05-09T20:31:09;94805.28;;;21.81;42.73
56600;BME280;51832;48.152;11.530;2023-05-09T20:36:10;94801.84;;;21.89;42.30
56600;BME280;51832;48.152;11.530;2023-05-09T20:41:10;94806.50;;;21.75;42.83
56600;BME280;51832;48.152;11.530;2023-05-09T20:46:11;94875.25;;;20.57;45.98
56600;BME280;51832;48.152;11.530;2023-05-09T20:51:12;94894.25;;;19.82;48.69
56600;BME280;51832;48.152;11.530;2023-05-09T20:56:13;94888.22;;;19.77;49.30
56600;BME280;51832;48.152;11.530;2023-05-09T21:01:13;94899.50;;;19.36;51.15
56600;BME280;51832;48.152;11.530;2023-05-09T21:06:14;94902.09;;;18.37;64.56
56600;BME280;51832;48.152;11.530;2023-05-09T21:11:14;94919.78;;;17.70;74.18
56600;BME280;51832;48.152;11.530;2023-05-09T21:16:15;94906.84;;;17.20;79.08
56600;BME280;51832;48.152;11.530;2023-05-09T21:21:15;94932.16;;;17.07;81.74
56600;BME280;51832;48.152;11.530;2023-05-09T21:26:15;94919.00;;;16.82;83.58
56600;BME280;51832;48.152;11.530;2023-05-09T21:31:16;94927.03;;;17.21;84.24
56600;BME280;51832;48.152;11.530;2023-05-09T21:36:16;94944.88;;;16.46;88.07
56600;BME280;51832;48.152;11.530;2023-05-09T21:41:17;94942.75;;;16.43;88.46
56600;BME280;51832;48.152;11.530;2023-05-09T21:46:17;94941.75;;;16.18;91.16
56600;BME280;51832;48.152;11.530;2023-05-09T21:51:18;94942.53;;;16.34;89.66
56600;BME280;51832;48.152;11.530;2023-05-09T21:56:18;94942.31;;;16.05;90.04
56600;BME280;51832;48.152;11.530;2023-05-09T22:01:18;94948.44;;;15.95;90.36
56600;BME280;51832;48.152;11.530;2023-05-09T22:06:19;94957.13;;;16.26;88.79
56600;BME280;51832;48.152;11.530;2023-05-09T22:11:20;94957.41;;;16.35;88.47
56600;BME280;51832;48.152;11.530;2023-05-09T22:16:21;94946.00;;;16.19;88.50
56600;BME280;51832;48.152;11.530;2023-05-09T22:21:21;94944.66;;;16.27;87.92
56600;BME280;51832;48.152;11.530;2023-05-09T22:26:22;94943.94;;;15.81;90.32
56600;BME280;51832;48.152;11.530;2023-05-09T22:31:22;94941.28;;;15.96;89.91
56600;BME280;51832;48.152;11.530;2023-05-09T22:36:23;94931.41;;;16.17;89.61
56600;BME280;51832;48.152;11.530;2023-05-09T22:41:24;94939.16;;;15.98;89.53
56600;BME280;51832;48.152;11.530;2023-05-09T22:46:24;94931.97;;;16.04;89.65
56600;BME280;51832;48.152;11.530;2023-05-09T22:51:24;94935.91;;;16.21;88.52
56600;BME280;51832;48.152;11.530;2023-05-09T22:56:25;94932.72;;;16.19;89.25
56600;BME280;51832;48.152;11.530;2023-05-09T23:01:26;94928.03;;;15.71;90.97
56600;BME280;51832;48.152;11.530;2023-05-09T23:06:26;94924.53;;;16.00;90.19
56600;BME280;51832;48.152;11.530;2023-05-09T23:11:27;94916.84;;;15.89;90.11
56600;BME280;51832;48.152;11.530;2023-05-09T23:16:27;94919.81;;;15.82;90.85
56600;BME280;51832;48.152;11.530;2023-05-09T23:21:28;94924.03;;;15.93;90.20
56600;BME280;51832;48.152;11.530;2023-05-09T23:26:28;94915.22;;;16.18;90.15
56600;BME280;51832;48.152;11.530;2023-05-09T23:31:28;94908.88;;;16.04;90.47
56600;BME280;51832;48.152;11.530;2023-05-09T23:36:29;94912.34;;;15.94;90.87
56600;BME280;51832;48.152;11.530;2023-05-09T23:41:30;94910.66;;;16.29;89.44
56600;BME280;51832;48.152;11.530;2023-05-09T23:46:30;94909.66;;;15.99;90.19
56600;BME280;51832;48.152;11.530;2023-05-09T23:51:30;94900.88;;;16.19;90.07
56600;BME280;51832;48.152;11.530;2023-05-09T23:56:31;94907.56;;;16.07;89.84
